Time;durP1;ratioP1;P1;durP2;ratioP2;P2;SDS_P1;SDS_P2;PMS_P1;PMS_P2;Temp;Humidity;BMP_temperature;BMP_pressure;BME280_temperature;BME280_humidity;BME280_pressure;Samples;Min_cycle;Max_cycle;Signal;HPM_P1;HPM_P2
2022/12/11 00:01:56;;;;;;;60.13;28.10;;;;;;;-0.01;100.00;101201.09;5078740;28;20032;-71
2022/12/11 00:04:22;;;;;;;56.15;27.30;;;;;;;0.02;100.00;101196.66;5096854;28;20032;-71
2022/12/11 00:06:49;;;;;;;56.83;26.90;;;;;;;0.04;100.00;101195.66;5096794;28;20030;-71
2022/12/11 00:09:16;;;;;;;67.18;27.27;;;;;;;0.04;100.00;101200.06;5096697;28;20032;-71
2022/12/11 00:11:41;;;;;;;57.80;28.05;;;;;;;0.04;100.00;101197.44;5078398;28;20123;-71
2022/12/11 00:14:07;;;;;;;52.33;27.15;;;;;;;0.04;100.00;101198.28;5062207;28;20119;-71
2022/12/11 00:16:32;;;;;;;54.35;27.02;;;;;;;0.03;100.00;101193.13;5078531;28;20036;-71
2022/12/11 00:18:57;;;;;;;50.22;25.75;;;;;;;0.04;100.00;101195.66;5096539;28;20111;-71
2022/12/11 00:21:23;;;;;;;47.25;25.85;;;;;;;0.04;100.00;101194.81;5096828;28;20055;-71
2022/12/11 00:23:48;;;;;;;50.58;25.40;;;;;;;0.04;100.00;101198.28;5096615;28;20028;-71
2022/12/11 00:26:15;;;;;;;47.33;25.10;;;;;;;0.05;100.00;101196.53;5096499;28;20026;-71
2022/12/11 00:28:41;;;;;;;42.80;24.17;;;;;;;0.04;100.00;101198.28;5096464;28;20028;-72
2022/12/11 00:31:10;;;;;;;49.92;23.83;;;;;;;0.04;100.00;101195.66;5078283;28;20032;-72
2022/12/11 00:33:35;;;;;;;40.42;21.55;;;;;;;0.06;100.00;101203.44;5096005;28;20031;-72
2022/12/11 00:36:00;;;;;;;37.63;21.40;;;;;;;0.06;100.00;101200.84;5096221;28;20115;-71
2022/12/11 00:38:26;;;;;;;32.35;19.75;;;;;;;0.05;100.00;101207.84;5096768;28;20441;-72
2022/12/11 00:40:51;;;;;;;34.65;19.65;;;;;;;0.03;100.00;101199.22;5095536;28;20039;-71
2022/12/11 00:43:17;;;;;;;32.15;19.25;;;;;;;0.05;100.00;101205.22;5095740;28;20349;-71
2022/12/11 00:45:44;;;;;;;31.27;19.00;;;;;;;0.04;100.00;101198.28;5095700;28;20484;-72
2022/12/11 00:48:11;;;;;;;30.30;19.20;;;;;;;0.04;100.00;101194.81;5078093;28;20106;-72
2022/12/11 00:50:37;;;;;;;29.17;18.52;;;;;;;0.03;100.00;101193.97;5095702;28;20523;-72
2022/12/11 00:53:04;;;;;;;29.30;19.23;;;;;;;-0.01;100.00;101188.00;5077716;28;20040;-72
2022/12/11 00:55:29;;;;;;;29.13;18.15;;;;;;;-0.03;100.00;101183.75;5095874;28;20051;-72
2022/12/11 00:57:57;;;;;;;37.63;19.65;;;;;;;-0.07;100.00;101179.56;5095950;28;20376;-72
2022/12/11 01:00:22;;;;;;;28.67;18.58;;;;;;;-0.13;100.00;101185.91;5077929;28;20032;-72
2022/12/11 01:02:48;;;;;;;30.63;18.05;;;;;;;-0.15;100.00;101179.88;5095374;28;20092;-73
2022/12/11 01:05:14;;;;;;;28.35;17.35;;;;;;;-0.12;100.00;101186.72;5078004;28;20020;-72
2022/12/11 01:07:39;;;;;;;30.98;17.23;;;;;;;-0.15;100.00;101192.09;5095686;28;20371;-73
2022/12/11 01:10:22;;;;;;;30.50;18.42;;;;;;;-0.17;100.00;101181.69;5095278;28;20161;-72
2022/12/11 01:12:49;;;;;;;31.25;17.83;;;;;;;-0.16;100.00;101190.38;5077968;28;20024;-71
2022/12/11 01:15:15;;;;;;;30.35;17.17;;;;;;;-0.17;100.00;101181.69;5077649;28;20020;-72
2022/12/11 01:17:40;;;;;;;30.30;18.98;;;;;;;-0.15;100.00;101187.72;5077833;28;20020;-72
2022/12/11 01:20:06;;;;;;;34.53;19.45;;;;;;;-0.19;100.00;101181.75;5095384;28;20036;-72
2022/12/11 01:22:32;;;;;;;32.38;18.60;;;;;;;-0.17;100.00;101183.47;5095591;28;20034;-72
2022/12/11 01:24:58;;;;;;;30.38;17.83;;;;;;;-0.21;100.00;101187.94;5095259;28;20032;-72
2022/12/11 01:27:23;;;;;;;34.22;19.02;;;;;;;-0.20;100.00;101200.97;5095556;28;20031;-72
2022/12/11 01:29:48;;;;;;;33.20;18.55;;;;;;;-0.20;100.00;101193.13;5095386;28;20034;-72
2022/12/11 01:32:14;;;;;;;35.58;19.30;;;;;;;-0.19;100.00;101196.59;5095167;28;20353;-71
2022/12/11 01:34:40;;;;;;;35.50;18.70;;;;;;;-0.19;100.00;101197.44;5095320;28;20123;-72
2022/12/11 01:37:06;;;;;;;35.05;19.65;;;;;;;-0.17;100.00;101202.63;5094748;28;20028;-72
2022/12/11 01:39:31;;;;;;;32.85;18.60;;;;;;;-0.15;100.00;101205.16;5095086;28;20039;-72
2022/12/11 01:41:58;;;;;;;31.67;19.27;;;;;;;-0.12;100.00;101207.66;5094856;28;20020;-73
2022/12/11 01:44:23;;;;;;;29.52;17.15;;;;;;;-0.10;100.00;101209.31;5094684;28;20080;-72
2022/12/11 01:46:49;;;;;;;30.80;17.02;;;;;;;-0.10;100.00;101209.31;5095418;28;20501;-72
2022/12/11 01:49:17;;;;;;;31.33;16.92;;;;;;;-0.10;100.00;101211.09;5094721;28;20071;-72
2022/12/11 01:52:01;;;;;;;29.40;16.15;;;;;;;-0.11;100.00;101204.16;5094551;28;20044;-72
2022/12/11 01:54:28;;;;;;;28.05;16.30;;;;;;;-0.15;100.00;101195.59;5094436;28;20031;-72
2022/12/11 01:56:56;;;;;;;32.53;16.98;;;;;;;-0.16;100.00;101199.09;5094736;28;20020;-72
2022/12/11 01:59:28;;;;;;;32.70;17.70;;;;;;;-0.16;100.00;101199.09;5076966;28;20024;-72
2022/12/11 02:01:58;;;;;;;31.08;17.30;;;;;;;-0.16;100.00;101191.25;5094517;28;20031;-72
2022/12/11 02:04:24;;;;;;;29.17;17.67;;;;;;;-0.15;100.00;101195.59;5094643;28;20035;-72
2022/12/11 02:06:51;;;;;;;38.50;18.30;;;;;;;-0.17;100.00;101189.53;5094514;28;20028;-72
2022/12/11 02:09:30;;;;;;;33.38;19.38;;;;;;;-0.22;100.00;101189.72;5094199;28;20028;-72
2022/12/11 02:12:18;;;;;;;34.53;19.38;;;;;;;-0.19;100.00;101192.22;5094468;28;20111;-72
2022/12/11 02:15:05;;;;;;;33.53;19.27;;;;;;;-0.23;100.00;101189.78;5094126;28;20397;-71
2022/12/11 02:17:39;;;;;;;33.50;18.98;;;;;;;-0.23;100.00;101192.41;5076765;28;20024;-72
2022/12/11 02:20:25;;;;;;;41.00;20.73;;;;;;;-0.29;100.00;101182.19;5094587;28;20019;-72
2022/12/11 02:23:06;;;;;;;38.40;20.70;;;;;;;-0.30;100.00;101186.59;5094338;28;20107;-72
2022/12/11 02:25:49;;;;;;;37.97;21.48;;;;;;;-0.32;100.00;101185.78;5094700;28;20032;-72
2022/12/11 02:29:02;;;;;;;46.67;22.25;;;;;;;-0.35;100.00;101183.28;5094294;28;20024;-72
2022/12/11 02:31:36;;;;;;;40.47;20.55;;;;;;;-0.37;100.00;101182.50;4992330;28;20370;-72
2022/12/11 02:34:12;;;;;;;44.22;22.05;;;;;;;-0.38;100.00;101175.56;4992351;28;20030;-73
2022/12/11 02:36:42;;;;;;;43.10;21.42;;;;;;;-0.38;100.00;101175.56;5052468;28;20036;-72
2022/12/11 02:39:12;;;;;;;44.27;22.43;;;;;;;-0.36;100.00;101177.22;5094284;28;20042;-72
2022/12/11 02:41:43;;;;;;;41.45;23.05;;;;;;;-0.33;100.00;101176.22;5075734;28;20085;-72
2022/12/11 02:44:12;;;;;;;51.90;22.92;;;;;;;-0.30;100.00;101186.59;5076017;28;20028;-72
2022/12/11 02:46:39;;;;;;;44.35;23.35;;;;;;;-0.28;100.00;101179.50;5093863;28;20449;-72
2022/12/11 02:49:07;;;;;;;43.55;23.25;;;;;;;-0.29;100.00;101175.19;5075768;28;20114;-72
2022/12/11 02:51:36;;;;;;;41.72;23.00;;;;;;;-0.26;100.00;101184.69;5093163;28;20066;-76
2022/12/11 02:54:05;;;;;;;45.42;23.60;;;;;;;-0.26;100.00;101169.81;5094187;28;20032;-76
2022/12/11 02:56:51;;;;;;;41.95;23.00;;;;;;;-0.26;100.00;101161.16;5093887;28;20059;-76
2022/12/11 02:59:25;;;;;;;41.70;22.52;;;;;;;-0.30;100.00;101156.94;5093142;28;20506;-75
2022/12/11 03:01:51;;;;;;;41.35;22.38;;;;;;;-0.33;100.00;101157.06;5093493;28;20039;-75
2022/12/11 03:04:16;;;;;;;47.47;23.60;;;;;;;-0.36;100.00;101158.91;5093370;28;20028;-76
2022/12/11 03:06:47;;;;;;;46.92;24.25;;;;;;;-0.39;100.00;101158.16;5093737;28;20106;-75
2022/12/11 03:09:12;;;;;;;51.10;24.33;;;;;;;-0.45;100.00;101151.44;5093421;28;20111;-76
2022/12/11 03:11:38;;;;;;;47.67;24.40;;;;;;;-0.49;100.00;101149.84;5093361;28;20392;-76
2022/12/11 03:14:04;;;;;;;45.28;23.02;;;;;;;-0.53;100.00;101145.63;5075171;28;20035;-76
2022/12/11 03:16:35;;;;;;;53.15;23.75;;;;;;;-0.56;100.00;101141.38;5093598;28;20031;-76
2022/12/11 03:19:28;;;;;;;45.97;21.67;;;;;;;-0.58;100.00;101155.44;5093327;28;20148;-76
2022/12/11 03:22:11;;;;;;;40.72;20.08;;;;;;;-0.69;100.00;101149.75;5093164;28;20437;-77
2022/12/11 03:24:50;;;;;;;41.67;19.63;;;;;;;-0.79;100.00;101141.41;5075908;28;20340;-76
2022/12/11 03:27:22;;;;;;;41.70;19.15;;;;;;;-0.87;100.00;101140.88;5093710;28;20046;-76
2022/12/11 03:29:58;;;;;;;42.33;20.65;;;;;;;-0.97;100.00;101136.00;5093270;28;20020;-76
2022/12/11 03:32:29;;;;;;;46.42;19.55;;;;;;;-1.03;100.00;101140.59;5093197;28;20027;-76
2022/12/11 03:35:04;;;;;;;49.15;20.65;;;;;;;-1.06;100.00;101136.31;5093950;28;20020;-76
2022/12/11 03:37:34;;;;;;;49.08;20.92;;;;;;;-1.02;100.00;101139.69;5092656;28;20062;-76
2022/12/11 03:40:06;;;;;;;55.45;22.63;;;;;;;-0.93;100.00;101145.41;5093539;28;20051;-76
2022/12/11 03:42:33;;;;;;;59.00;23.25;;;;;;;-0.83;100.00;101142.47;5093293;28;20051;-76
2022/12/11 03:44:59;;;;;;;48.55;21.15;;;;;;;-0.78;100.00;101132.66;5093444;28;20024;-76
2022/12/11 03:47:27;;;;;;;44.15;20.60;;;;;;;-0.76;100.00;101136.06;5092703;28;20479;-76
2022/12/11 03:49:54;;;;;;;47.67;21.10;;;;;;;-0.73;100.00;101134.19;5093536;28;20085;-75
2022/12/11 03:52:21;;;;;;;42.38;19.52;;;;;;;-0.72;100.00;101132.44;5092794;28;20055;-76
2022/12/11 03:54:49;;;;;;;41.97;19.65;;;;;;;-0.69;100.00;101136.69;5092977;28;20020;-76
2022/12/11 03:57:19;;;;;;;45.65;19.63;;;;;;;-0.67;100.00;101135.72;5092824;28;20024;-76
2022/12/11 03:59:45;;;;;;;42.30;19.60;;;;;;;-0.66;100.00;101128.72;5092960;28;20028;-75
2022/12/11 04:02:10;;;;;;;40.13;17.80;;;;;;;-0.62;100.00;101127.72;5092819;28;20032;-75
2022/12/11 04:04:37;;;;;;;43.58;19.38;;;;;;;-0.63;100.00;101126.84;5092945;28;20115;-75
2022/12/11 04:07:02;;;;;;;38.85;18.38;;;;;;;-0.64;100.00;101130.38;5092637;28;20024;-76
2022/12/11 04:09:28;;;;;;;41.08;19.20;;;;;;;-0.63;100.00;101132.06;5092693;28;20027;-76
2022/12/11 04:11:53;;;;;;;36.58;18.00;;;;;;;-0.62;100.00;101128.53;5092782;28;20451;-76
2022/12/11 04:17:02;;;;;;;32.03;15.88;;;;;;;-0.61;100.00;101125.03;5094977;28;20046;-76
2022/12/11 04:24:58;;;;;;;29.48;13.98;;;;;;;-0.65;100.00;101112.16;5096745;28;20101;-75
2022/12/11 04:30:12;;;;;;;29.67;14.35;;;;;;;-0.65;100.00;101106.91;5096839;28;20074;-75
2022/12/11 04:32:38;;;;;;;32.17;14.07;;;;;;;-0.66;100.00;101106.06;5096170;28;20515;-75
2022/12/11 04:35:06;;;;;;;22.92;12.95;;;;;;;-0.65;100.00;101109.53;5077902;28;20070;-76
2022/12/11 04:37:32;;;;;;;23.60;12.80;;;;;;;-0.65;100.00;101113.00;5096525;28;20027;-75
2022/12/11 04:39:57;;;;;;;28.48;14.27;;;;;;;-0.62;100.00;101117.25;5095731;28;20111;-75
2022/12/11 04:42:22;;;;;;;25.73;13.57;;;;;;;-0.61;100.00;101114.56;5095837;28;20031;-76
2022/12/11 04:44:48;;;;;;;26.02;13.88;;;;;;;-0.59;100.00;101120.59;5061159;28;20024;-76
2022/12/11 04:47:13;;;;;;;27.02;13.48;;;;;;;-0.59;100.00;101119.75;5095934;28;20068;-76
2022/12/11 04:49:38;;;;;;;33.00;14.40;;;;;;;-0.59;100.00;101117.97;5096350;28;20071;-75
2022/12/11 04:52:04;;;;;;;28.23;14.80;;;;;;;-0.59;100.00;101123.19;5095653;28;20047;-75
2022/12/11 04:54:31;;;;;;;29.67;14.85;;;;;;;-0.59;100.00;101125.81;5096135;28;20070;-74
2022/12/11 04:56:56;;;;;;;29.35;15.90;;;;;;;-0.60;100.00;101121.50;5095470;28;20115;-74
2022/12/11 04:59:22;;;;;;;35.75;15.15;;;;;;;-0.59;100.00;101122.34;5095917;28;20019;-75
2022/12/11 05:01:47;;;;;;;34.42;15.80;;;;;;;-0.59;100.00;101111.91;5095707;28;20117;-75
2022/12/11 05:04:13;;;;;;;28.77;15.07;;;;;;;-0.59;100.00;101119.75;5095471;28;20525;-75
2022/12/11 05:06:38;;;;;;;32.60;15.45;;;;;;;-0.61;100.00;101114.56;5077399;28;20105;-75
2022/12/11 05:09:03;;;;;;;28.52;15.25;;;;;;;-0.61;100.00;101113.72;5095513;28;20395;-74
2022/12/11 05:11:29;;;;;;;28.33;14.32;;;;;;;-0.59;100.00;101119.75;5095339;28;20119;-75
2022/12/11 05:13:54;;;;;;;29.63;14.85;;;;;;;-0.60;100.00;101118.91;5095663;28;20036;-75
2022/12/11 05:16:20;;;;;;;29.90;14.73;;;;;;;-0.61;100.00;101113.72;5095422;28;20448;-75
2022/12/11 05:18:46;;;;;;;27.35;14.57;;;;;;;-0.61;100.00;101113.72;5095201;28;20486;-75
2022/12/11 05:21:14;;;;;;;25.83;14.68;;;;;;;-0.59;100.00;101112.75;5094877;28;20368;-75
2022/12/11 05:23:40;;;;;;;27.67;14.55;;;;;;;-0.56;100.00;101109.16;5076904;28;20409;-75
2022/12/11 05:26:09;;;;;;;28.38;14.55;;;;;;;-0.58;100.00;101109.22;5095152;28;20024;-75
2022/12/11 05:28:37;;;;;;;24.83;13.60;;;;;;;-0.59;100.00;101098.84;5094009;28;20031;-75
2022/12/11 05:31:10;;;;;;;28.67;13.35;;;;;;;-0.60;100.00;101105.84;5094710;28;20456;-75
2022/12/11 05:33:35;;;;;;;28.17;13.90;;;;;;;-0.63;100.00;101100.69;5095575;28;20034;-75
2022/12/11 05:36:01;;;;;;;30.67;13.70;;;;;;;-0.67;100.00;101100.88;5094983;28;20020;-75
2022/12/11 05:38:26;;;;;;;28.38;14.27;;;;;;;-0.73;100.00;101095.00;5095098;28;20062;-75
2022/12/11 05:41:04;;;;;;;29.45;13.75;;;;;;;-0.74;100.00;101098.50;5095020;28;20051;-74
2022/12/11 05:43:32;;;;;;;26.27;13.88;;;;;;;-0.76;100.00;101097.75;5094773;28;20031;-75
2022/12/11 05:46:10;;;;;;;26.17;13.68;;;;;;;-0.79;100.00;101097.84;5094718;28;20024;-75
2022/12/11 05:48:36;;;;;;;27.25;14.07;;;;;;;-0.79;100.00;101094.38;5094682;28;20024;-74
2022/12/11 05:51:03;;;;;;;27.10;14.23;;;;;;;-0.79;100.00;101094.38;5094619;28;20055;-75
2022/12/11 05:53:29;;;;;;;27.88;13.98;;;;;;;-0.83;100.00;101093.66;5094469;28;20048;-75
2022/12/11 05:56:03;;;;;;;33.65;14.60;;;;;;;-0.83;100.00;101090.19;5094264;28;20472;-74
2022/12/11 05:58:29;;;;;;;25.65;13.43;;;;;;;-0.85;100.00;101092.00;5094823;28;20123;-75
2022/12/11 06:00:54;;;;;;;25.63;13.38;;;;;;;-0.90;100.00;101094.81;5094776;28;20059;-75
2022/12/11 06:03:19;;;;;;;25.83;13.77;;;;;;;-0.98;100.00;101092.47;5076633;28;20031;-75
2022/12/11 06:05:45;;;;;;;25.10;13.05;;;;;;;-1.07;100.00;101088.47;5094331;28;20039;-75
2022/12/11 06:08:10;;;;;;;28.13;14.20;;;;;;;-1.16;100.00;101098.41;5094312;28;20032;-74
2022/12/11 06:10:36;;;;;;;28.13;14.23;;;;;;;-1.26;100.00;101096.13;5094250;28;20024;-75
2022/12/11 06:13:02;;;;;;;30.55;13.75;;;;;;;-1.32;100.00;101098.97;5076478;28;20458;-74
2022/12/11 06:15:27;;;;;;;26.13;13.63;;;;;;;-1.35;100.00;101098.25;5094242;28;20028;-75
2022/12/11 06:17:52;;;;;;;28.35;14.38;;;;;;;-1.37;100.00;101097.44;5094283;28;20472;-75
2022/12/11 06:20:18;;;;;;;28.00;14.93;;;;;;;-1.39;100.00;101096.63;5094031;28;20036;-74
2022/12/11 06:22:43;;;;;;;29.33;15.25;;;;;;;-1.39;100.00;101104.47;5093836;28;20020;-75
2022/12/11 06:25:08;;;;;;;29.25;14.02;;;;;;;-1.38;100.00;101099.19;5093556;28;20032;-74
2022/12/11 06:27:34;;;;;;;30.35;14.85;;;;;;;-1.37;100.00;101107.88;5075572;28;20464;-75
2022/12/11 06:30:00;;;;;;;30.70;15.13;;;;;;;-1.37;100.00;101100.03;5093846;28;20016;-74
2022/12/11 06:32:26;;;;;;;26.80;14.27;;;;;;;-1.33;100.00;101104.25;5093845;28;20027;-75
2022/12/11 06:34:51;;;;;;;29.02;13.88;;;;;;;-1.35;100.00;101099.09;5093828;28;20071;-74
2022/12/11 06:37:17;;;;;;;29.05;14.65;;;;;;;-1.37;100.00;101100.03;5093769;28;20031;-75
2022/12/11 06:39:42;;;;;;;27.70;14.20;;;;;;;-1.41;100.00;101101.91;5094157;28;20510;-74
2022/12/11 06:42:07;;;;;;;27.55;14.05;;;;;;;-1.44;100.00;101094.19;5093642;28;20031;-75
2022/12/11 06:44:33;;;;;;;31.05;14.00;;;;;;;-1.48;100.00;101098.69;5093640;28;20455;-79
2022/12/11 06:46:58;;;;;;;28.88;13.80;;;;;;;-1.51;100.00;101100.53;5093537;28;20205;-74
2022/12/11 06:49:23;;;;;;;29.65;14.82;;;;;;;-1.59;100.00;101087.78;5093597;28;20400;-74
2022/12/11 06:51:49;;;;;;;37.13;15.25;;;;;;;-1.61;100.00;101098.28;5093121;28;20377;-74
2022/12/11 06:54:14;;;;;;;29.98;14.60;;;;;;;-1.66;100.00;101088.91;5075203;28;20391;-75
2022/12/11 06:56:39;;;;;;;40.38;16.42;;;;;;;-1.65;100.00;101098.44;5093721;28;20032;-75
2022/12/11 06:59:06;;;;;;;38.35;16.40;;;;;;;-1.61;100.00;101090.44;5075397;28;20058;-75
2022/12/11 07:01:31;;;;;;;47.00;16.42;;;;;;;-1.60;100.00;101091.28;5093412;28;20035;-74
2022/12/11 07:03:58;;;;;;;43.53;17.67;;;;;;;-1.64;100.00;101085.34;5092946;28;20058;-75
2022/12/11 07:06:26;;;;;;;38.83;17.08;;;;;;;-1.64;100.00;101094.94;5093445;28;20456;-75
2022/12/11 07:08:51;;;;;;;37.63;15.90;;;;;;;-1.71;100.00;101098.66;5093224;28;20047;-75
2022/12/11 07:11:18;;;;;;;44.42;16.80;;;;;;;-1.78;100.00;101096.28;5093713;28;20112;-75
2022/12/11 07:13:44;;;;;;;38.92;15.65;;;;;;;-1.83;100.00;101092.13;5093210;28;20368;-75
2022/12/11 07:16:12;;;;;;;38.78;15.45;;;;;;;-1.90;100.00;101096.69;5094000;28;20111;-75
2022/12/11 07:18:39;;;;;;;37.28;16.23;;;;;;;-1.97;100.00;101093.44;5093237;28;20107;-77
2022/12/11 07:21:05;;;;;;;41.22;16.00;;;;;;;-2.01;100.00;101099.66;5093275;28;20078;-74
2022/12/11 07:23:32;;;;;;;37.78;16.20;;;;;;;-2.03;100.00;101098.00;5093113;28;20028;-75
2022/12/11 07:25:58;;;;;;;40.67;16.58;;;;;;;-2.04;100.00;101101.53;5093155;28;20082;-74
2022/12/11 07:28:24;;;;;;;36.65;14.82;;;;;;;-2.14;100.00;101101.81;5093370;28;20051;-74
2022/12/11 07:30:50;;;;;;;42.28;15.02;;;;;;;-2.22;100.00;101109.06;5092918;28;20084;-74
2022/12/11 07:33:15;;;;;;;37.03;15.45;;;;;;;-2.29;100.00;101102.34;5092809;28;20410;-74
2022/12/11 07:35:40;;;;;;;42.42;16.15;;;;;;;-2.36;100.00;101100.81;5093347;28;20136;-75
2022/12/11 07:38:07;;;;;;;43.88;15.32;;;;;;;-2.42;100.00;101103.63;5093446;28;20420;-74
2022/12/11 07:40:32;;;;;;;40.35;15.98;;;;;;;-2.49;100.00;101108.19;5092707;28;20077;-74
2022/12/11 07:42:58;;;;;;;37.00;15.60;;;;;;;-2.55;100.00;101114.44;5074900;28;20114;-75
2022/12/11 07:45:25;;;;;;;39.55;15.48;;;;;;;-2.61;100.00;101113.78;5092968;28;20035;-75
2022/12/11 07:47:51;;;;;;;40.03;15.35;;;;;;;-2.61;100.00;101117.25;5092769;28;20085;-75
2022/12/11 07:50:17;;;;;;;44.58;16.30;;;;;;;-2.56;100.00;101117.94;5074722;28;20450;-74
2022/12/11 07:52:42;;;;;;;45.60;16.73;;;;;;;-2.58;100.00;101111.94;5095744;28;20048;-76
2022/12/11 07:55:08;;;;;;;51.45;17.17;;;;;;;-2.53;100.00;101122.22;5097434;28;20024;-75
2022/12/11 07:57:33;;;;;;;44.35;15.65;;;;;;;-2.53;100.00;101119.63;5096791;28;20024;-74
2022/12/11 07:59:58;;;;;;;48.60;16.73;;;;;;;-2.52;100.00;101124.78;5096861;28;20035;-75
2022/12/11 08:02:23;;;;;;;47.72;16.40;;;;;;;-2.46;100.00;101128.06;5078643;28;20060;-75
2022/12/11 08:04:49;;;;;;;49.15;16.45;;;;;;;-2.46;100.00;101128.94;5096747;28;20483;-75
2022/12/11 08:07:14;;;;;;;50.17;15.38;;;;;;;-2.46;100.00;101128.06;5096637;28;20472;-75
2022/12/11 08:09:40;;;;;;;41.72;15.75;;;;;;;-2.50;100.00;101125.56;5078578;28;20514;-74
2022/12/11 08:12:05;;;;;;;45.17;15.88;;;;;;;-2.50;100.00;101120.34;5097252;28;20039;-75
2022/12/11 08:14:30;;;;;;;49.72;16.35;;;;;;;-2.50;100.00;101120.34;5096530;28;20412;-75
2022/12/11 08:16:56;;;;;;;48.08;16.42;;;;;;;-2.52;100.00;101127.38;5096525;28;20364;-75
2022/12/11 08:19:22;;;;;;;46.15;16.60;;;;;;;-2.53;100.00;101117.00;5096180;28;20389;-75
2022/12/11 08:21:48;;;;;;;44.05;15.98;;;;;;;-2.57;100.00;101124.06;5096656;28;20020;-75
2022/12/11 08:24:15;;;;;;;45.40;15.60;;;;;;;-2.56;100.00;101125.78;5096499;28;20028;-74
2022/12/11 08:26:41;;;;;;;49.25;17.10;;;;;;;-2.56;100.00;101128.38;5096527;28;20035;-74
2022/12/11 08:29:06;;;;;;;42.33;16.50;;;;;;;-2.59;100.00;101125.88;5096205;28;20420;-75
2022/12/11 08:31:32;;;;;;;38.70;15.57;;;;;;;-2.58;100.00;101124.09;5096234;28;20494;-74
2022/12/11 08:33:57;;;;;;;40.35;15.63;;;;;;;-2.56;100.00;101130.97;5096706;28;20162;-74
2022/12/11 08:36:24;;;;;;;50.17;17.55;;;;;;;-2.50;100.00;101125.56;5096109;28;20027;-74
2022/12/11 08:38:50;;;;;;;49.30;17.23;;;;;;;-2.42;100.00;101132.31;5095161;28;20081;-75
2022/12/11 08:41:20;;;;;;;57.53;17.00;;;;;;;-2.34;100.00;101130.31;5096391;28;20032;-74
2022/12/11 08:43:47;;;;;;;49.15;17.20;;;;;;;-2.24;100.00;101130.84;5096529;28;20020;-74
2022/12/11 08:46:13;;;;;;;54.10;18.38;;;;;;;-2.13;100.00;101133.97;5096177;28;20036;-75
2022/12/11 08:48:40;;;;;;;52.67;19.08;;;;;;;-2.05;100.00;101129.34;5095984;28;20035;-74
2022/12/11 08:51:09;;;;;;;54.63;18.50;;;;;;;-1.92;100.00;101136.78;5096380;28;20028;-75
2022/12/11 08:53:34;;;;;;;53.97;17.92;;;;;;;-1.80;100.00;101137.19;5095398;28;20040;-74
2022/12/11 08:56:05;;;;;;;54.40;17.75;;;;;;;-1.68;100.00;101135.91;5096004;28;20051;-74
2022/12/11 08:58:30;;;;;;;51.92;18.00;;;;;;;-1.57;100.00;101127.72;5095720;28;20089;-74
2022/12/11 09:00:56;;;;;;;49.67;19.33;;;;;;;-1.46;100.00;101129.97;5095628;28;20397;-74
2022/12/11 09:03:22;;;;;;;53.08;19.10;;;;;;;-1.36;100.00;101125.25;5096037;28;20118;-75
2022/12/11 09:05:47;;;;;;;39.55;17.10;;;;;;;-1.27;100.00;101124.91;5095533;28;20024;-74
2022/12/11 09:08:13;;;;;;;46.38;17.70;;;;;;;-1.17;100.00;101128.03;5095754;28;20035;-75
2022/12/11 09:10:38;;;;;;;40.75;17.75;;;;;;;-1.10;100.00;101127.75;5095186;28;20032;-74
2022/12/11 09:13:04;;;;;;;45.50;18.17;;;;;;;-1.04;100.00;101118.00;5095767;28;20117;-74
2022/12/11 09:15:29;;;;;;;44.15;16.98;;;;;;;-0.97;100.00;101128.16;5095725;28;20039;-75
2022/12/11 09:17:54;;;;;;;46.58;17.15;;;;;;;-0.93;100.00;101116.66;5095048;28;20024;-76
2022/12/11 09:20:20;;;;;;;42.95;17.70;;;;;;;-0.91;100.00;101124.44;5095360;28;20130;-74
2022/12/11 09:22:45;;;;;;;39.70;16.70;;;;;;;-0.92;100.00;101118.38;5095690;28;20142;-73
2022/12/11 09:25:10;;;;;;;41.63;17.13;;;;;;;-0.91;100.00;101125.31;5095199;28;20020;-74
2022/12/11 09:27:36;;;;;;;38.30;16.10;;;;;;;-0.86;100.00;101126.91;5095534;28;20035;-77
2022/12/11 09:30:02;;;;;;;39.33;16.10;;;;;;;-0.84;100.00;101115.47;5095066;28;20360;-75
2022/12/11 09:32:27;;;;;;;37.72;17.00;;;;;;;-0.80;100.00;101118.81;5095131;28;20457;-76
2022/12/11 09:34:52;;;;;;;39.35;16.90;;;;;;;-0.75;100.00;101122.09;5094784;28;20060;-74
2022/12/11 09:37:18;;;;;;;38.92;16.80;;;;;;;-0.73;100.00;101115.06;5094573;28;20024;-74
2022/12/11 09:39:43;;;;;;;36.47;15.88;;;;;;;-0.65;100.00;101118.22;5076449;28;20032;-73
2022/12/11 09:42:19;;;;;;;42.08;17.38;;;;;;;-0.54;100.00;101120.41;5094975;28;20059;-73
2022/12/11 09:44:50;;;;;;;40.90;17.60;;;;;;;-0.45;100.00;101120.06;5094482;28;20125;-74
2022/12/11 09:47:43;;;;;;;39.63;17.88;;;;;;;-0.40;100.00;101127.72;5094441;28;20024;-73
2022/12/11 09:50:09;;;;;;;42.90;17.48;;;;;;;-0.33;100.00;101121.28;5094435;28;20104;-74
2022/12/11 09:52:47;;;;;;;40.33;17.55;;;;;;;-0.31;100.00;101119.50;5093922;28;20035;-75
2022/12/11 09:55:16;;;;;;;37.28;17.23;;;;;;;-0.24;100.00;101125.31;5094724;28;20028;-74
2022/12/11 09:57:50;;;;;;;44.22;17.75;;;;;;;-0.16;100.00;101125.00;5094225;28;20448;-75
2022/12/11 10:00:38;;;;;;;38.20;17.95;;;;;;;-0.14;100.00;101126.63;5094339;28;20464;-74
2022/12/11 10:03:16;;;;;;;44.97;17.77;;;;;;;-0.06;100.00;101121.94;5080109;28;20118;-75
2022/12/11 10:06:10;;;;;;;33.45;16.77;;;;;;;-0.07;100.00;101109.78;5094383;28;20032;-74
2022/12/11 10:08:54;;;;;;;35.80;16.85;;;;;;;-0.09;100.00;101116.84;5088914;28;20055;-75
2022/12/11 10:11:27;;;;;;;39.70;18.77;;;;;;;-0.07;100.00;101119.41;5093938;28;20102;-75
2022/12/11 10:14:16;;;;;;;35.17;16.80;;;;;;;-0.04;100.00;101120.13;5093747;28;20055;-74
2022/12/11 10:16:50;;;;;;;37.25;17.42;;;;;;;0.01;100.00;101113.84;5094174;28;20032;-74
2022/12/11 10:19:29;;;;;;;36.28;17.90;;;;;;;0.11;100.00;101108.16;5093857;28;20024;-73
2022/12/11 10:21:55;;;;;;;39.40;16.70;;;;;;;0.19;100.00;101118.28;5076171;28;20028;-74
2022/12/11 10:24:39;;;;;;;35.90;17.08;;;;;;;0.25;100.00;101114.56;5093796;28;20119;-74
2022/12/11 10:27:20;;;;;;;29.90;15.85;;;;;;;0.31;100.00;101107.31;5093321;28;20146;-75
2022/12/11 10:29:47;;;;;;;31.88;17.13;;;;;;;0.37;100.00;101103.56;5093548;28;20114;-76
2022/12/11 10:32:21;;;;;;;37.47;17.95;;;;;;;0.40;100.00;101099.97;5093784;28;20043;-76
2022/12/11 10:34:50;;;;;;;37.22;18.50;;;;;;;0.47;100.00;101098.78;5094100;28;20046;-74
2022/12/11 10:37:15;;;;;;;36.65;17.80;;;;;;;0.55;100.00;101095.81;5094350;28;20020;-72
2022/12/11 10:39:41;;;;;;;35.35;17.55;;;;;;;0.62;100.00;101097.25;5093867;28;20544;-75
2022/12/11 10:42:18;;;;;;;33.78;17.08;;;;;;;0.65;100.00;101097.94;5093919;28;20027;-75
2022/12/11 10:45:01;;;;;;;38.97;18.17;;;;;;;0.72;100.00;101092.41;5093504;28;20028;-75
2022/12/11 10:47:27;;;;;;;38.10;18.75;;;;;;;0.74;100.00;101090.59;5094426;28;20027;-75
2022/12/11 10:50:02;;;;;;;34.60;18.00;;;;;;;0.76;100.00;101084.38;5075577;28;20028;-75
2022/12/11 10:52:33;;;;;;;37.28;18.23;;;;;;;0.78;100.00;101084.31;5094192;28;20043;-75
2022/12/11 10:55:01;;;;;;;;;;;;;;;0.86;100.00;101076.94;5094164;28;20047;-74
2022/12/11 10:57:36;;;;;;;31.15;16.83;;;;;;;0.87;100.00;101071.63;5093563;28;19912;-75
2022/12/11 11:00:05;;;;;;;32.42;16.95;;;;;;;0.95;100.00;101073.03;5093888;28;20077;-72
2022/12/11 11:02:35;;;;;;;37.53;18.20;;;;;;;0.97;100.00;101071.19;5093553;28;20077;-74
2022/12/11 11:05:14;;;;;;;33.05;17.70;;;;;;;0.95;100.00;101070.44;5093498;28;20039;-74
2022/12/11 11:07:39;;;;;;;36.67;18.15;;;;;;;0.97;100.00;101069.44;5093298;28;20402;-74
2022/12/11 11:10:10;;;;;;;32.30;17.73;;;;;;;0.95;100.00;101067.81;5093886;28;20075;-74
2022/12/11 11:12:48;;;;;;;32.88;17.60;;;;;;;0.94;100.00;101061.72;5093287;28;20024;-74
2022/12/11 11:15:21;;;;;;;30.20;16.67;;;;;;;0.96;100.00;101064.28;5093345;28;20359;-74
2022/12/11 11:17:49;;;;;;;32.95;16.98;;;;;;;1.07;100.00;101061.97;5092982;28;20032;-75
2022/12/11 11:20:18;;;;;;;32.97;18.08;;;;;;;1.09;100.00;101057.53;5093164;28;20063;-73